createdAt,value
2022-08-22T00:02:26.788Z,99142.94
2022-08-22T00:07:46.199Z,99135.00
2022-08-22T00:12:46.680Z,99137.22
2022-08-22T00:17:56.097Z,99133.34
2022-08-22T00:22:54.710Z,99135.28
2022-08-22T00:27:56.869Z,99132.81
2022-08-22T00:32:59.605Z,99127.34
2022-08-22T00:38:10.484Z,99122.41
2022-08-22T00:43:02.368Z,99126.25
2022-08-22T00:48:06.327Z,99128.72
2022-08-22T00:53:22.450Z,99117.22
2022-08-22T00:58:33.998Z,99119.69
2022-08-22T01:03:48.519Z,99113.66
2022-08-22T01:08:58.790Z,99124.34
2022-08-22T01:14:00.447Z,99121.88
2022-08-22T01:19:00.376Z,99113.38
2022-08-22T01:24:30.494Z,99108.16
2022-08-22T01:30:02.874Z,99098.00
2022-08-22T01:35:26.601Z,99108.16
2022-08-22T01:40:53.613Z,99104.03
2022-08-22T01:45:55.002Z,99114.47
2022-08-22T01:50:58.036Z,99118.28
2022-08-22T01:55:57.779Z,99109.53
2022-08-22T02:01:24.891Z,99098.56
2022-08-22T02:06:25.068Z,99088.72
2022-08-22T02:11:58.780Z,99080.50
2022-08-22T02:17:10.871Z,99073.91
2022-08-22T02:22:24.822Z,99078.84
2022-08-22T02:27:49.818Z,99076.94
2022-08-22T02:32:41.406Z,99072.81
2022-08-22T02:37:38.345Z,99072.28
2022-08-22T02:43:14.950Z,99071.47
2022-08-22T02:48:35.835Z,99076.38
2022-08-22T02:53:37.242Z,99070.38
2022-08-22T02:58:47.856Z,99064.88
2022-08-22T03:03:42.801Z,99081.03
2022-08-22T03:08:36.123Z,99081.56
2022-08-22T03:14:06.109Z,99078.56
2022-08-22T03:19:18.414Z,99068.44
2022-08-22T03:24:13.135Z,99062.94
2022-08-22T03:29:11.899Z,99062.94
2022-08-22T03:34:23.899Z,99050.34
2022-08-22T03:39:35.546Z,99059.91
2022-08-22T03:44:50.788Z,99062.66
2022-08-22T03:50:12.948Z,99069.50
2022-08-22T03:56:00.237Z,99052.81
2022-08-22T04:01:03.657Z,99032.28
2022-08-22T04:05:58.360Z,99034.75
2022-08-22T04:10:51.717Z,99031.75
2022-08-22T04:16:05.139Z,99017.50
2022-08-22T04:20:56.805Z,99010.41
2022-08-22T04:25:59.490Z,99018.88
2022-08-22T04:31:12.895Z,99012.56
2022-08-22T04:36:26.521Z,99009.84
2022-08-22T04:41:25.711Z,99001.34
2022-08-22T04:46:32.114Z,99006.03
2022-08-22T04:51:41.173Z,99001.09
2022-08-22T04:56:50.845Z,98986.84
2022-08-22T05:02:10.645Z,98981.38
2022-08-22T05:07:11.342Z,98978.38
2022-08-22T05:12:12.053Z,98972.34
2022-08-22T05:17:08.045Z,98972.09
2022-08-22T05:22:01.297Z,98973.16
2022-08-22T05:26:57.385Z,98985.75
2022-08-22T05:32:03.716Z,98984.09
2022-08-22T05:36:57.370Z,98996.41
2022-08-22T05:41:50.392Z,99001.88
2022-08-22T05:46:50.118Z,99003.78
2022-08-22T05:51:53.640Z,99005.16
2022-08-22T05:56:52.137Z,99002.41
2022-08-22T06:01:58.683Z,99013.63
2022-08-22T06:06:57.633Z,99016.09
2022-08-22T06:12:21.792Z,98993.66
2022-08-22T06:17:20.421Z,98995.06
2022-08-22T06:22:25.919Z,98992.84
2022-08-22T06:27:26.320Z,98986.84
2022-08-22T06:32:59.564Z,98989.03
2022-08-22T06:37:48.251Z,98987.94
2022-08-22T06:42:51.989Z,98989.03
2022-08-22T06:47:53.540Z,98976.75
2022-08-22T06:52:59.680Z,98981.78
2022-08-22T06:57:58.922Z,98992.81
2022-08-22T07:03:01.182Z,98974.44
2022-08-22T07:07:53.181Z,98981.81
2022-08-22T07:12:49.328Z,98983.81
2022-08-22T07:17:51.839Z,98977.34
2022-08-22T07:23:01.035Z,98969.06
2022-08-22T07:28:35.837Z,98966.03
2022-08-22T07:33:49.863Z,98972.28
2022-08-22T07:38:48.263Z,98969.09
2022-08-22T07:43:48.700Z,98963.56
2022-08-22T07:49:08.143Z,98959.84
2022-08-22T07:54:05.421Z,98967.03
2022-08-22T07:59:07.995Z,98964.81
2022-08-22T08:04:07.733Z,98961.38
2022-08-22T08:08:59.773Z,98970.94
2022-08-22T08:13:59.049Z,98955.81
2022-08-22T08:18:55.289Z,98951.06
2022-08-22T08:23:47.373Z,98945.53
2022-08-22T08:28:47.658Z,98956.09
2022-08-22T08:33:42.087Z,98950.25
2022-08-22T08:38:45.502Z,98935.78
2022-08-22T08:44:26.040Z,98945.66
2022-08-22T08:49:33.727Z,98936.19
2022-08-22T08:55:23.907Z,98933.53
2022-08-22T09:00:21.237Z,98934.50
2022-08-22T09:05:34.222Z,98924.41
2022-08-22T09:11:28.489Z,98927.97
2022-08-22T09:16:58.134Z,98920.22
2022-08-22T09:22:22.881Z,98914.84
2022-08-22T09:27:38.342Z,98927.41
2022-08-22T09:32:54.718Z,98908.47
2022-08-22T09:38:05.514Z,98921.06
2022-08-22T09:43:50.282Z,98913.75
2022-08-22T09:49:20.278Z,98901.84
2022-08-22T09:54:31.376Z,98889.13
2022-08-22T09:59:51.029Z,98895.72
2022-08-22T10:04:58.166Z,98881.94
2022-08-22T10:10:01.487Z,98880.34
2022-08-22T10:15:19.421Z,98878.88
2022-08-22T10:20:32.281Z,98892.91
2022-08-22T10:25:25.725Z,98884.25
2022-08-22T10:30:29.752Z,98881.34
2022-08-22T10:35:27.355Z,98881.94
2022-08-22T10:40:39.353Z,98882.94
2022-08-22T10:46:06.904Z,98873.97
2022-08-22T10:51:24.888Z,98873.44
2022-08-22T10:56:34.354Z,98874.13
2022-08-22T11:01:41.548Z,98861.75
2022-08-22T11:06:41.017Z,98864.41
2022-08-22T11:12:01.958Z,98861.06
2022-08-22T11:17:28.015Z,98856.47
2022-08-22T11:22:55.598Z,98856.78
2022-08-22T11:27:56.675Z,98852.97
2022-08-22T11:32:59.519Z,98848.56
2022-08-22T11:38:16.235Z,98861.25
2022-08-22T11:43:26.165Z,98837.75
2022-08-22T11:48:24.962Z,98835.19
2022-08-22T11:53:40.082Z,98829.34
2022-08-22T11:58:49.610Z,98826.69
2022-08-22T12:03:58.493Z,98827.72
2022-08-22T12:09:09.575Z,98824.47
2022-08-22T12:14:06.965Z,98820.81
2022-08-22T12:19:11.286Z,98823.84
2022-08-22T12:24:31.900Z,98822.66
2022-08-22T12:29:52.961Z,98818.41
2022-08-22T12:34:51.661Z,98818.63
2022-08-22T12:40:13.221Z,98819.88
2022-08-22T12:45:16.487Z,98821.88
2022-08-22T12:50:28.121Z,98822.06
2022-08-22T12:55:57.156Z,98814.50
2022-08-22T13:00:50.296Z,98812.09
2022-08-22T13:05:50.409Z,98820.75
2022-08-22T13:10:59.529Z,98813.28
2022-08-22T13:16:06.576Z,98810.75
2022-08-22T13:21:04.516Z,98823.13
2022-08-22T13:26:07.904Z,98818.00
2022-08-22T13:31:02.810Z,98827.69
2022-08-22T13:36:00.298Z,98834.06
2022-08-22T13:40:53.166Z,98828.56
2022-08-22T13:45:56.326Z,98825.50
2022-08-22T13:51:11.305Z,98827.03
2022-08-22T13:56:15.648Z,98809.59
2022-08-22T14:01:35.740Z,98815.50
2022-08-22T14:06:49.046Z,98816.13
2022-08-22T14:11:47.525Z,98807.34
2022-08-22T14:16:47.350Z,98813.47
2022-08-22T14:21:55.916Z,98806.31
2022-08-22T14:27:26.856Z,98808.25
2022-08-22T14:32:23.833Z,98811.84
2022-08-22T14:37:22.266Z,98799.53
2022-08-22T14:42:23.902Z,98811.19
2022-08-22T14:47:55.217Z,98809.97
2022-08-22T14:53:02.601Z,98822.25
2022-08-22T14:58:00.276Z,98793.25
2022-08-22T15:03:09.516Z,98789.56
2022-08-22T15:08:01.433Z,98775.66
2022-08-22T15:13:00.156Z,98781.09
2022-08-22T15:17:51.832Z,98773.13
2022-08-22T15:22:46.178Z,98774.69
2022-08-22T15:27:50.066Z,98775.19
2022-08-22T15:32:44.691Z,98776.50
2022-08-22T15:38:04.134Z,98773.22
2022-08-22T15:42:58.212Z,98771.09
2022-08-22T15:47:53.192Z,98762.16
2022-08-22T15:53:18.740Z,98752.03
2022-08-22T15:58:21.018Z,98746.00
2022-08-22T16:03:23.436Z,98756.53
2022-08-22T16:08:23.658Z,98748.38
2022-08-22T16:13:27.609Z,98738.34
2022-08-22T16:18:37.387Z,98735.97
2022-08-22T16:23:49.812Z,98737.06
2022-08-22T16:29:00.657Z,98733.34
2022-08-22T16:33:52.401Z,98728.41
2022-08-22T16:38:48.861Z,98721.50
2022-08-22T16:43:54.908Z,98726.53
2022-08-22T16:48:46.965Z,98723.91
2022-08-22T16:53:38.970Z,98730.22
2022-08-22T16:58:57.035Z,98723.19
2022-08-22T17:04:11.830Z,98733.03
2022-08-22T17:09:22.938Z,98726.31
2022-08-22T17:14:20.173Z,98733.38
2022-08-22T17:19:34.853Z,98731.56
2022-08-22T17:24:46.424Z,98728.31
2022-08-22T17:29:56.899Z,98718.81
2022-08-22T17:35:03.946Z,98733.09
2022-08-22T17:40:19.386Z,98741.97
2022-08-22T17:45:10.990Z,98729.66
2022-08-22T17:50:31.719Z,98726.69
2022-08-22T17:55:29.114Z,98735.16
2022-08-22T18:00:31.465Z,98734.94
2022-08-22T18:05:27.786Z,98736.72
2022-08-22T18:10:30.783Z,98732.94
2022-08-22T18:15:38.927Z,98743.81
2022-08-22T18:20:33.973Z,98752.41
2022-08-22T18:25:46.108Z,98747.72
2022-08-22T18:31:02.555Z,98742.22
2022-08-22T18:36:07.694Z,98755.75
2022-08-22T18:41:10.938Z,98752.22
2022-08-22T18:46:25.059Z,98753.84
2022-08-22T18:51:23.866Z,98754.66
2022-08-22T18:56:41.994Z,98756.06
2022-08-22T19:02:14.754Z,98756.69
2022-08-22T19:07:31.438Z,98765.47
2022-08-22T19:12:33.150Z,98764.03
2022-08-22T19:17:46.651Z,98763.94
2022-08-22T19:22:51.359Z,98768.41
2022-08-22T19:28:04.863Z,98772.56
2022-08-22T19:33:04.843Z,98774.63
2022-08-22T19:37:59.823Z,98765.84
2022-08-22T19:42:53.339Z,98775.28
2022-08-22T19:47:54.949Z,98773.75
2022-08-22T19:53:08.193Z,98776.28
2022-08-22T19:58:32.555Z,98780.44
2022-08-22T20:03:58.238Z,98778.81
2022-08-22T20:09:02.802Z,98774.63
2022-08-22T20:14:12.493Z,98783.19
2022-08-22T20:19:09.244Z,98792.78
2022-08-22T20:24:07.397Z,98785.63
2022-08-22T20:29:03.029Z,98786.47
2022-08-22T20:34:03.961Z,98780.84
2022-08-22T20:39:01.812Z,98802.03
2022-08-22T20:44:06.400Z,98797.13
2022-08-22T20:49:00.758Z,98796.59
2022-08-22T20:53:56.445Z,98793.03
2022-08-22T20:58:49.051Z,98797.19
2022-08-22T21:03:47.511Z,98791.50
2022-08-22T21:08:40.257Z,98792.00
2022-08-22T21:13:36.789Z,98786.00
2022-08-22T21:18:30.507Z,98773.66
2022-08-22T21:23:22.306Z,98775.09
2022-08-22T21:28:37.053Z,98772.84
2022-08-22T21:33:28.811Z,98787.69
2022-08-22T21:38:20.587Z,98795.13
2022-08-22T21:43:27.677Z,98807.78
2022-08-22T21:48:40.258Z,98802.66
2022-08-22T21:53:32.145Z,98811.28
2022-08-22T21:58:35.490Z,98805.34
2022-08-22T22:03:37.217Z,98813.22
2022-08-22T22:08:31.513Z,98816.13
2022-08-22T22:13:24.646Z,98814.84
2022-08-22T22:18:24.614Z,98809.41
2022-08-22T22:23:16.958Z,98800.19
2022-08-22T22:28:13.910Z,98809.06
2022-08-22T22:33:05.732Z,98816.03
2022-08-22T22:37:57.883Z,98824.94
2022-08-22T22:42:50.319Z,98824.97
2022-08-22T22:47:42.278Z,98824.16
2022-08-22T22:52:34.770Z,98828.84
2022-08-22T22:57:32.619Z,98823.34
2022-08-22T23:02:34.395Z,98826.97
2022-08-22T23:07:26.787Z,98841.22
2022-08-22T23:12:18.667Z,98837.13
2022-08-22T23:17:14.790Z,98836.09
2022-08-22T23:22:08.393Z,98850.16
2022-08-22T23:27:00.443Z,98846.06
2022-08-22T23:31:55.592Z,98853.19
2022-08-22T23:36:47.736Z,98842.75
2022-08-22T23:41:40.625Z,98831.47
2022-08-22T23:46:32.526Z,98829.25
2022-08-22T23:51:27.283Z,98812.47
2022-08-22T23:56:27.298Z,98812.47
